sensor_id;sensor_type;location;lat;lon;timestamp;P1;durP1;ratioP1;P2;durP2;ratioP2
15848;SDS011;8024;48.708;9.394;2023-02-19T00:00:58;3.00;;;2.80;;
15848;SDS011;8024;48.708;9.394;2023-02-19T00:03:28;3.83;;;3.03;;
15848;SDS011;8024;48.708;9.394;2023-02-19T00:05:55;3.23;;;2.93;;
15848;SDS011;8024;48.708;9.394;2023-02-19T00:08:26;2.33;;;2.23;;
15848;SDS011;8024;48.708;9.394;2023-02-19T00:10:54;2.87;;;2.77;;
15848;SDS011;8024;48.708;9.394;2023-02-19T00:13:26;3.00;;;2.80;;
15848;SDS011;8024;48.708;9.394;2023-02-19T00:15:53;2.80;;;2.60;;
15848;SDS011;8024;48.708;9.394;2023-02-19T00:18:22;3.23;;;3.00;;
15848;SDS011;8024;48.708;9.394;2023-02-19T00:20:49;3.83;;;2.87;;
15848;SDS011;8024;48.708;9.394;2023-02-19T00:23:16;3.20;;;2.60;;
15848;SDS011;8024;48.708;9.394;2023-02-19T00:25:44;2.63;;;2.43;;
15848;SDS011;8024;48.708;9.394;2023-02-19T00:28:11;2.57;;;2.37;;
15848;SDS011;8024;48.708;9.394;2023-02-19T00:30:38;2.57;;;2.47;;
15848;SDS011;8024;48.708;9.394;2023-02-19T00:33:05;2.80;;;2.60;;
15848;SDS011;8024;48.708;9.394;2023-02-19T00:35:34;3.80;;;2.73;;
15848;SDS011;8024;48.708;9.394;2023-02-19T00:38:02;3.00;;;2.37;;
15848;SDS011;8024;48.708;9.394;2023-02-19T00:40:29;2.83;;;2.63;;
15848;SDS011;8024;48.708;9.394;2023-02-19T00:42:56;2.60;;;2.40;;
15848;SDS011;8024;48.708;9.394;2023-02-19T00:45:23;2.53;;;2.33;;
15848;SDS011;8024;48.708;9.394;2023-02-19T00:47:51;2.50;;;2.40;;
15848;SDS011;8024;48.708;9.394;2023-02-19T00:50:18;2.70;;;2.50;;
15848;SDS011;8024;48.708;9.394;2023-02-19T00:52:46;3.60;;;3.30;;
15848;SDS011;8024;48.708;9.394;2023-02-19T00:55:14;3.03;;;2.83;;
15848;SDS011;8024;48.708;9.394;2023-02-19T00:57:41;2.67;;;2.57;;
15848;SDS011;8024;48.708;9.394;2023-02-19T01:00:09;2.90;;;2.70;;
15848;SDS011;8024;48.708;9.394;2023-02-19T01:02:36;3.43;;;2.60;;
15848;SDS011;8024;48.708;9.394;2023-02-19T01:05:04;3.17;;;2.97;;
15848;SDS011;8024;48.708;9.394;2023-02-19T01:07:33;3.00;;;2.80;;
15848;SDS011;8024;48.708;9.394;2023-02-19T01:10:02;2.80;;;2.57;;
15848;SDS011;8024;48.708;9.394;2023-02-19T01:12:30;2.77;;;2.40;;
15848;SDS011;8024;48.708;9.394;2023-02-19T01:14:57;3.83;;;2.73;;
15848;SDS011;8024;48.708;9.394;2023-02-19T01:17:24;2.27;;;1.73;;
15848;SDS011;8024;48.708;9.394;2023-02-19T01:19:51;1.43;;;1.40;;
15848;SDS011;8024;48.708;9.394;2023-02-19T01:22:19;2.10;;;2.00;;
15848;SDS011;8024;48.708;9.394;2023-02-19T01:24:46;2.40;;;2.20;;
15848;SDS011;8024;48.708;9.394;2023-02-19T01:27:14;2.50;;;1.80;;
15848;SDS011;8024;48.708;9.394;2023-02-19T01:29:41;2.40;;;1.77;;
15848;SDS011;8024;48.708;9.394;2023-02-19T01:32:08;1.73;;;1.23;;
15848;SDS011;8024;48.708;9.394;2023-02-19T01:34:36;1.13;;;1.13;;
15848;SDS011;8024;48.708;9.394;2023-02-19T01:37:03;2.67;;;1.53;;
15848;SDS011;8024;48.708;9.394;2023-02-19T01:39:32;1.77;;;1.50;;
15848;SDS011;8024;48.708;9.394;2023-02-19T01:41:59;1.40;;;0.90;;
15848;SDS011;8024;48.708;9.394;2023-02-19T01:47:42;1.07;;;1.07;;
15848;SDS011;8024;48.708;9.394;2023-02-19T01:50:10;1.30;;;1.20;;
15848;SDS011;8024;48.708;9.394;2023-02-19T01:52:37;1.70;;;1.20;;
15848;SDS011;8024;48.708;9.394;2023-02-19T01:55:05;1.30;;;1.20;;
15848;SDS011;8024;48.708;9.394;2023-02-19T01:57:37;1.40;;;1.40;;
15848;SDS011;8024;48.708;9.394;2023-02-19T02:00:08;1.23;;;1.23;;
15848;SDS011;8024;48.708;9.394;2023-02-19T02:02:40;1.90;;;1.40;;
15848;SDS011;8024;48.708;9.394;2023-02-19T02:05:10;1.20;;;1.20;;
15848;SDS011;8024;48.708;9.394;2023-02-19T02:07:43;1.87;;;1.43;;
15848;SDS011;8024;48.708;9.394;2023-02-19T02:10:28;1.33;;;1.23;;
15848;SDS011;8024;48.708;9.394;2023-02-19T02:12:55;1.67;;;1.50;;
15848;SDS011;8024;48.708;9.394;2023-02-19T02:15:23;1.20;;;1.10;;
15848;SDS011;8024;48.708;9.394;2023-02-19T02:17:56;1.93;;;1.70;;
15848;SDS011;8024;48.708;9.394;2023-02-19T02:20:32;1.40;;;1.30;;
15848;SDS011;8024;48.708;9.394;2023-02-19T02:23:11;1.50;;;1.43;;
15848;SDS011;8024;48.708;9.394;2023-02-19T02:25:56;1.43;;;1.40;;
15848;SDS011;8024;48.708;9.394;2023-02-19T02:28:35;1.93;;;1.60;;
15848;SDS011;8024;48.708;9.394;2023-02-19T02:31:22;1.40;;;1.37;;
15848;SDS011;8024;48.708;9.394;2023-02-19T02:33:54;1.57;;;1.47;;
15848;SDS011;8024;48.708;9.394;2023-02-19T02:36:27;1.57;;;1.47;;
15848;SDS011;8024;48.708;9.394;2023-02-19T02:38:56;2.47;;;1.90;;
15848;SDS011;8024;48.708;9.394;2023-02-19T02:41:24;1.80;;;1.63;;
15848;SDS011;8024;48.708;9.394;2023-02-19T02:43:52;2.43;;;1.57;;
15848;SDS011;8024;48.708;9.394;2023-02-19T02:46:20;2.10;;;2.00;;
15848;SDS011;8024;48.708;9.394;2023-02-19T02:48:54;1.93;;;1.83;;
15848;SDS011;8024;48.708;9.394;2023-02-19T02:51:24;2.27;;;2.00;;
15848;SDS011;8024;48.708;9.394;2023-02-19T02:53:55;2.03;;;1.80;;
15848;SDS011;8024;48.708;9.394;2023-02-19T02:56:43;2.23;;;1.67;;
15848;SDS011;8024;48.708;9.394;2023-02-19T02:59:13;2.40;;;2.20;;
15848;SDS011;8024;48.708;9.394;2023-02-19T03:01:45;1.90;;;1.80;;
15848;SDS011;8024;48.708;9.394;2023-02-19T03:04:36;1.90;;;1.80;;
15848;SDS011;8024;48.708;9.394;2023-02-19T03:07:22;1.87;;;1.77;;
15848;SDS011;8024;48.708;9.394;2023-02-19T03:09:52;1.63;;;1.53;;
15848;SDS011;8024;48.708;9.394;2023-02-19T03:12:21;2.00;;;1.90;;
15848;SDS011;8024;48.708;9.394;2023-02-19T03:15:08;1.70;;;1.60;;
15848;SDS011;8024;48.708;9.394;2023-02-19T03:17:58;1.73;;;1.63;;
15848;SDS011;8024;48.708;9.394;2023-02-19T03:20:47;1.70;;;1.60;;
15848;SDS011;8024;48.708;9.394;2023-02-19T03:23:18;1.70;;;1.60;;
15848;SDS011;8024;48.708;9.394;2023-02-19T03:26:08;1.90;;;1.80;;
15848;SDS011;8024;48.708;9.394;2023-02-19T03:28:36;1.67;;;1.53;;
15848;SDS011;8024;48.708;9.394;2023-02-19T03:31:29;1.47;;;1.37;;
15848;SDS011;8024;48.708;9.394;2023-02-19T03:34:00;2.03;;;1.80;;
15848;SDS011;8024;48.708;9.394;2023-02-19T03:36:32;1.57;;;1.47;;
15848;SDS011;8024;48.708;9.394;2023-02-19T03:39:04;1.77;;;1.60;;
15848;SDS011;8024;48.708;9.394;2023-02-19T03:41:34;1.80;;;1.70;;
15848;SDS011;8024;48.708;9.394;2023-02-19T03:44:08;1.40;;;1.40;;
15848;SDS011;8024;48.708;9.394;2023-02-19T03:46:43;2.20;;;2.00;;
15848;SDS011;8024;48.708;9.394;2023-02-19T03:49:20;2.40;;;2.20;;
15848;SDS011;8024;48.708;9.394;2023-02-19T03:51:51;3.30;;;1.80;;
15848;SDS011;8024;48.708;9.394;2023-02-19T03:54:26;1.90;;;1.80;;
15848;SDS011;8024;48.708;9.394;2023-02-19T03:57:00;1.50;;;1.40;;
15848;SDS011;8024;48.708;9.394;2023-02-19T03:59:32;2.63;;;1.20;;
15848;SDS011;8024;48.708;9.394;2023-02-19T04:02:04;1.93;;;1.83;;
15848;SDS011;8024;48.708;9.394;2023-02-19T04:04:35;1.70;;;1.60;;
15848;SDS011;8024;48.708;9.394;2023-02-19T04:07:04;2.33;;;2.20;;
15848;SDS011;8024;48.708;9.394;2023-02-19T04:09:33;2.00;;;1.90;;
15848;SDS011;8024;48.708;9.394;2023-02-19T04:12:03;2.10;;;2.00;;
15848;SDS011;8024;48.708;9.394;2023-02-19T04:14:31;1.57;;;1.50;;
15848;SDS011;8024;48.708;9.394;2023-02-19T04:17:04;1.63;;;1.53;;
15848;SDS011;8024;48.708;9.394;2023-02-19T04:19:37;2.00;;;1.80;;
15848;SDS011;8024;48.708;9.394;2023-02-19T04:22:07;1.53;;;1.43;;
15848;SDS011;8024;48.708;9.394;2023-02-19T04:24:36;1.83;;;1.73;;
15848;SDS011;8024;48.708;9.394;2023-02-19T04:27:07;1.63;;;1.53;;
15848;SDS011;8024;48.708;9.394;2023-02-19T04:29:35;1.37;;;1.27;;
15848;SDS011;8024;48.708;9.394;2023-02-19T04:32:02;0.93;;;0.93;;
15848;SDS011;8024;48.708;9.394;2023-02-19T04:34:29;1.67;;;1.17;;
15848;SDS011;8024;48.708;9.394;2023-02-19T04:36:58;1.33;;;1.33;;
15848;SDS011;8024;48.708;9.394;2023-02-19T04:39:25;1.33;;;1.23;;
15848;SDS011;8024;48.708;9.394;2023-02-19T04:41:52;0.83;;;0.83;;
15848;SDS011;8024;48.708;9.394;2023-02-19T04:44:19;2.50;;;1.50;;
15848;SDS011;8024;48.708;9.394;2023-02-19T04:46:47;1.50;;;1.40;;
15848;SDS011;8024;48.708;9.394;2023-02-19T04:49:14;1.20;;;1.20;;
15848;SDS011;8024;48.708;9.394;2023-02-19T04:51:41;1.67;;;1.57;;
15848;SDS011;8024;48.708;9.394;2023-02-19T04:54:09;0.60;;;0.60;;
15848;SDS011;8024;48.708;9.394;2023-02-19T04:56:37;1.00;;;1.00;;
15848;SDS011;8024;48.708;9.394;2023-02-19T04:59:05;0.80;;;0.80;;
15848;SDS011;8024;48.708;9.394;2023-02-19T05:01:32;0.80;;;0.80;;
15848;SDS011;8024;48.708;9.394;2023-02-19T05:03:59;0.80;;;0.80;;
15848;SDS011;8024;48.708;9.394;2023-02-19T05:06:26;0.70;;;0.70;;
15848;SDS011;8024;48.708;9.394;2023-02-19T05:08:53;0.80;;;0.40;;
15848;SDS011;8024;48.708;9.394;2023-02-19T05:11:22;0.50;;;0.50;;
15848;SDS011;8024;48.708;9.394;2023-02-19T05:13:49;0.40;;;0.40;;
15848;SDS011;8024;48.708;9.394;2023-02-19T05:16:17;0.50;;;0.40;;
15848;SDS011;8024;48.708;9.394;2023-02-19T05:18:44;0.70;;;0.30;;
15848;SDS011;8024;48.708;9.394;2023-02-19T05:21:12;0.40;;;0.40;;
15848;SDS011;8024;48.708;9.394;2023-02-19T05:23:40;0.30;;;0.30;;
15848;SDS011;8024;48.708;9.394;2023-02-19T05:26:08;0.40;;;0.40;;
15848;SDS011;8024;48.708;9.394;2023-02-19T05:28:38;0.30;;;0.30;;
15848;SDS011;8024;48.708;9.394;2023-02-19T05:31:06;0.20;;;0.20;;
15848;SDS011;8024;48.708;9.394;2023-02-19T05:33:34;0.23;;;0.23;;
15848;SDS011;8024;48.708;9.394;2023-02-19T05:36:03;0.30;;;0.30;;
15848;SDS011;8024;48.708;9.394;2023-02-19T05:38:32;0.20;;;0.20;;
15848;SDS011;8024;48.708;9.394;2023-02-19T05:41:07;0.30;;;0.30;;
15848;SDS011;8024;48.708;9.394;2023-02-19T05:43:35;0.20;;;0.20;;
15848;SDS011;8024;48.708;9.394;2023-02-19T05:46:04;1.30;;;0.30;;
15848;SDS011;8024;48.708;9.394;2023-02-19T05:48:32;0.20;;;0.20;;
15848;SDS011;8024;48.708;9.394;2023-02-19T05:51:00;0.70;;;0.30;;
15848;SDS011;8024;48.708;9.394;2023-02-19T05:53:28;0.30;;;0.30;;
15848;SDS011;8024;48.708;9.394;2023-02-19T05:55:55;0.20;;;0.20;;
15848;SDS011;8024;48.708;9.394;2023-02-19T05:58:23;0.63;;;0.20;;
15848;SDS011;8024;48.708;9.394;2023-02-19T06:00:50;0.27;;;0.20;;
15848;SDS011;8024;48.708;9.394;2023-02-19T06:03:19;0.30;;;0.30;;
15848;SDS011;8024;48.708;9.394;2023-02-19T06:05:47;0.30;;;0.30;;
15848;SDS011;8024;48.708;9.394;2023-02-19T06:08:14;0.43;;;0.20;;
15848;SDS011;8024;48.708;9.394;2023-02-19T06:10:42;0.30;;;0.30;;
15848;SDS011;8024;48.708;9.394;2023-02-19T06:13:09;0.20;;;0.20;;
15848;SDS011;8024;48.708;9.394;2023-02-19T06:15:36;0.30;;;0.30;;
15848;SDS011;8024;48.708;9.394;2023-02-19T06:18:04;1.70;;;0.30;;
15848;SDS011;8024;48.708;9.394;2023-02-19T06:20:32;0.20;;;0.20;;
15848;SDS011;8024;48.708;9.394;2023-02-19T06:22:59;0.20;;;0.20;;
15848;SDS011;8024;48.708;9.394;2023-02-19T06:25:27;0.20;;;0.20;;
15848;SDS011;8024;48.708;9.394;2023-02-19T06:27:54;0.30;;;0.30;;
15848;SDS011;8024;48.708;9.394;2023-02-19T06:30:21;0.20;;;0.20;;
15848;SDS011;8024;48.708;9.394;2023-02-19T06:32:50;0.33;;;0.20;;
15848;SDS011;8024;48.708;9.394;2023-02-19T06:35:17;0.20;;;0.20;;
15848;SDS011;8024;48.708;9.394;2023-02-19T06:37:46;0.20;;;0.20;;
15848;SDS011;8024;48.708;9.394;2023-02-19T06:40:14;0.20;;;0.20;;
15848;SDS011;8024;48.708;9.394;2023-02-19T06:42:42;0.20;;;0.20;;
15848;SDS011;8024;48.708;9.394;2023-02-19T06:45:09;0.20;;;0.20;;
15848;SDS011;8024;48.708;9.394;2023-02-19T06:47:36;0.20;;;0.20;;
15848;SDS011;8024;48.708;9.394;2023-02-19T06:50:03;0.20;;;0.20;;
15848;SDS011;8024;48.708;9.394;2023-02-19T06:52:31;0.20;;;0.20;;
15848;SDS011;8024;48.708;9.394;2023-02-19T06:54:59;0.20;;;0.20;;
15848;SDS011;8024;48.708;9.394;2023-02-19T06:57:26;0.27;;;0.20;;
15848;SDS011;8024;48.708;9.394;2023-02-19T06:59:53;0.20;;;0.20;;
15848;SDS011;8024;48.708;9.394;2023-02-19T07:02:21;0.23;;;0.23;;
15848;SDS011;8024;48.708;9.394;2023-02-19T07:04:48;0.37;;;0.20;;
15848;SDS011;8024;48.708;9.394;2023-02-19T07:07:15;0.77;;;0.30;;
15848;SDS011;8024;48.708;9.394;2023-02-19T07:09:42;0.20;;;0.20;;
15848;SDS011;8024;48.708;9.394;2023-02-19T07:12:11;0.20;;;0.20;;
15848;SDS011;8024;48.708;9.394;2023-02-19T07:14:38;0.37;;;0.37;;
15848;SDS011;8024;48.708;9.394;2023-02-19T07:17:05;0.10;;;0.10;;
15848;SDS011;8024;48.708;9.394;2023-02-19T07:19:32;0.33;;;0.30;;
15848;SDS011;8024;48.708;9.394;2023-02-19T07:21:59;0.20;;;0.20;;
15848;SDS011;8024;48.708;9.394;2023-02-19T07:24:26;0.20;;;0.20;;
15848;SDS011;8024;48.708;9.394;2023-02-19T07:26:54;0.20;;;0.20;;
15848;SDS011;8024;48.708;9.394;2023-02-19T07:29:22;0.23;;;0.23;;
15848;SDS011;8024;48.708;9.394;2023-02-19T07:31:49;0.20;;;0.20;;
15848;SDS011;8024;48.708;9.394;2023-02-19T07:34:16;0.20;;;0.20;;
15848;SDS011;8024;48.708;9.394;2023-02-19T07:36:43;0.20;;;0.20;;
15848;SDS011;8024;48.708;9.394;2023-02-19T07:39:11;0.20;;;0.20;;
15848;SDS011;8024;48.708;9.394;2023-02-19T07:41:39;0.30;;;0.30;;
15848;SDS011;8024;48.708;9.394;2023-02-19T07:44:07;0.20;;;0.20;;
15848;SDS011;8024;48.708;9.394;2023-02-19T07:46:38;0.23;;;0.23;;
15848;SDS011;8024;48.708;9.394;2023-02-19T07:49:05;0.20;;;0.20;;
15848;SDS011;8024;48.708;9.394;2023-02-19T07:51:33;0.30;;;0.30;;
15848;SDS011;8024;48.708;9.394;2023-02-19T07:54:00;0.40;;;0.30;;
15848;SDS011;8024;48.708;9.394;2023-02-19T07:56:27;0.50;;;0.20;;
15848;SDS011;8024;48.708;9.394;2023-02-19T07:58:54;0.83;;;0.30;;
15848;SDS011;8024;48.708;9.394;2023-02-19T08:01:22;0.30;;;0.30;;
15848;SDS011;8024;48.708;9.394;2023-02-19T08:04:12;0.30;;;0.30;;
15848;SDS011;8024;48.708;9.394;2023-02-19T08:06:38;0.30;;;0.30;;
15848;SDS011;8024;48.708;9.394;2023-02-19T08:09:06;0.40;;;0.40;;
15848;SDS011;8024;48.708;9.394;2023-02-19T08:11:34;0.47;;;0.30;;
15848;SDS011;8024;48.708;9.394;2023-02-19T08:14:18;0.20;;;0.20;;
15848;SDS011;8024;48.708;9.394;2023-02-19T08:16:49;0.30;;;0.30;;
15848;SDS011;8024;48.708;9.394;2023-02-19T08:19:18;0.47;;;0.47;;
15848;SDS011;8024;48.708;9.394;2023-02-19T08:21:45;0.30;;;0.30;;
15848;SDS011;8024;48.708;9.394;2023-02-19T08:24:14;0.40;;;0.40;;
15848;SDS011;8024;48.708;9.394;2023-02-19T08:26:41;0.40;;;0.40;;
15848;SDS011;8024;48.708;9.394;2023-02-19T08:29:09;0.30;;;0.30;;
15848;SDS011;8024;48.708;9.394;2023-02-19T08:31:36;0.30;;;0.30;;
15848;SDS011;8024;48.708;9.394;2023-02-19T08:34:03;0.40;;;0.40;;
15848;SDS011;8024;48.708;9.394;2023-02-19T08:36:31;0.90;;;0.40;;
15848;SDS011;8024;48.708;9.394;2023-02-19T08:38:59;0.40;;;0.40;;
15848;SDS011;8024;48.708;9.394;2023-02-19T08:41:26;0.40;;;0.40;;
15848;SDS011;8024;48.708;9.394;2023-02-19T08:43:53;0.60;;;0.40;;
15848;SDS011;8024;48.708;9.394;2023-02-19T08:46:20;0.40;;;0.40;;
15848;SDS011;8024;48.708;9.394;2023-02-19T08:48:47;0.30;;;0.30;;
15848;SDS011;8024;48.708;9.394;2023-02-19T08:51:15;2.87;;;0.33;;
15848;SDS011;8024;48.708;9.394;2023-02-19T08:53:43;0.20;;;0.20;;
15848;SDS011;8024;48.708;9.394;2023-02-19T08:56:11;0.30;;;0.30;;
15848;SDS011;8024;48.708;9.394;2023-02-19T08:58:39;0.20;;;0.20;;
15848;SDS011;8024;48.708;9.394;2023-02-19T09:01:07;0.37;;;0.37;;
15848;SDS011;8024;48.708;9.394;2023-02-19T09:03:35;0.57;;;0.30;;
15848;SDS011;8024;48.708;9.394;2023-02-19T09:06:03;1.00;;;0.30;;
15848;SDS011;8024;48.708;9.394;2023-02-19T09:08:30;0.50;;;0.40;;
15848;SDS011;8024;48.708;9.394;2023-02-19T09:10:59;0.43;;;0.43;;
15848;SDS011;8024;48.708;9.394;2023-02-19T09:13:28;0.67;;;0.30;;
15848;SDS011;8024;48.708;9.394;2023-02-19T09:15:55;0.20;;;0.20;;
15848;SDS011;8024;48.708;9.394;2023-02-19T09:18:23;0.27;;;0.27;;
15848;SDS011;8024;48.708;9.394;2023-02-19T09:20:50;0.97;;;0.30;;
15848;SDS011;8024;48.708;9.394;2023-02-19T09:23:17;0.53;;;0.50;;
15848;SDS011;8024;48.708;9.394;2023-02-19T09:25:45;0.83;;;0.30;;
15848;SDS011;8024;48.708;9.394;2023-02-19T09:28:13;0.30;;;0.30;;
15848;SDS011;8024;48.708;9.394;2023-02-19T09:30:40;0.30;;;0.30;;
15848;SDS011;8024;48.708;9.394;2023-02-19T09:33:08;0.30;;;0.30;;
15848;SDS011;8024;48.708;9.394;2023-02-19T09:35:37;0.30;;;0.30;;
15848;SDS011;8024;48.708;9.394;2023-02-19T09:38:04;0.30;;;0.30;;
15848;SDS011;8024;48.708;9.394;2023-02-19T09:40:34;0.30;;;0.30;;
15848;SDS011;8024;48.708;9.394;2023-02-19T09:43:04;1.17;;;0.30;;
15848;SDS011;8024;48.708;9.394;2023-02-19T09:45:34;0.50;;;0.40;;
15848;SDS011;8024;48.708;9.394;2023-02-19T09:48:02;0.30;;;0.27;;
15848;SDS011;8024;48.708;9.394;2023-02-19T09:50:31;0.83;;;0.37;;
15848;SDS011;8024;48.708;9.394;2023-02-19T09:53:03;0.40;;;0.40;;
15848;SDS011;8024;48.708;9.394;2023-02-19T09:55:37;0.53;;;0.30;;
15848;SDS011;8024;48.708;9.394;2023-02-19T09:58:07;0.80;;;0.40;;
15848;SDS011;8024;48.708;9.394;2023-02-19T10:00:46;1.00;;;0.47;;
15848;SDS011;8024;48.708;9.394;2023-02-19T10:03:17;3.20;;;1.60;;
15848;SDS011;8024;48.708;9.394;2023-02-19T10:05:49;2.90;;;0.50;;
15848;SDS011;8024;48.708;9.394;2023-02-19T10:08:18;0.47;;;0.40;;
15848;SDS011;8024;48.708;9.394;2023-02-19T10:10:46;0.40;;;0.40;;
15848;SDS011;8024;48.708;9.394;2023-02-19T10:13:17;0.33;;;0.33;;
15848;SDS011;8024;48.708;9.394;2023-02-19T10:15:47;1.10;;;0.30;;
15848;SDS011;8024;48.708;9.394;2023-02-19T10:18:19;0.30;;;0.30;;
15848;SDS011;8024;48.708;9.394;2023-02-19T10:20:48;1.13;;;0.50;;
15848;SDS011;8024;48.708;9.394;2023-02-19T10:23:17;0.57;;;0.40;;
15848;SDS011;8024;48.708;9.394;2023-02-19T10:25:45;1.20;;;0.23;;
15848;SDS011;8024;48.708;9.394;2023-02-19T10:28:16;0.43;;;0.30;;
15848;SDS011;8024;48.708;9.394;2023-02-19T10:30:49;0.47;;;0.30;;
15848;SDS011;8024;48.708;9.394;2023-02-19T10:33:18;1.70;;;0.50;;
15848;SDS011;8024;48.708;9.394;2023-02-19T10:35:50;0.80;;;0.40;;
15848;SDS011;8024;48.708;9.394;2023-02-19T10:38:23;0.40;;;0.30;;
15848;SDS011;8024;48.708;9.394;2023-02-19T10:40:57;1.03;;;0.30;;
15848;SDS011;8024;48.708;9.394;2023-02-19T10:43:28;0.83;;;0.40;;
15848;SDS011;8024;48.708;9.394;2023-02-19T10:46:00;1.80;;;0.40;;
15848;SDS011;8024;48.708;9.394;2023-02-19T10:48:30;1.53;;;0.50;;
15848;SDS011;8024;48.708;9.394;2023-02-19T10:51:00;1.47;;;0.40;;
15848;SDS011;8024;48.708;9.394;2023-02-19T10:56:21;1.33;;;0.50;;
15848;SDS011;8024;48.708;9.394;2023-02-19T10:58:50;1.47;;;0.37;;
15848;SDS011;8024;48.708;9.394;2023-02-19T11:01:19;2.43;;;0.40;;
15848;SDS011;8024;48.708;9.394;2023-02-19T11:03:48;1.90;;;0.50;;
15848;SDS011;8024;48.708;9.394;2023-02-19T11:06:16;1.47;;;0.40;;
15848;SDS011;8024;48.708;9.394;2023-02-19T11:08:46;2.23;;;0.60;;
15848;SDS011;8024;48.708;9.394;2023-02-19T11:11:23;3.43;;;0.73;;
15848;SDS011;8024;48.708;9.394;2023-02-19T11:13:53;3.73;;;0.60;;
15848;SDS011;8024;48.708;9.394;2023-02-19T11:16:23;1.70;;;0.47;;
15848;SDS011;8024;48.708;9.394;2023-02-19T11:19:01;2.10;;;0.30;;
15848;SDS011;8024;48.708;9.394;2023-02-19T11:21:29;0.87;;;0.30;;
15848;SDS011;8024;48.708;9.394;2023-02-19T11:23:57;0.73;;;0.53;;
15848;SDS011;8024;48.708;9.394;2023-02-19T11:26:26;0.50;;;0.43;;
15848;SDS011;8024;48.708;9.394;2023-02-19T11:28:59;1.27;;;0.30;;
15848;SDS011;8024;48.708;9.394;2023-02-19T11:31:37;1.77;;;0.47;;
15848;SDS011;8024;48.708;9.394;2023-02-19T11:37:11;0.93;;;0.30;;
15848;SDS011;8024;48.708;9.394;2023-02-19T11:39:40;0.73;;;0.43;;
15848;SDS011;8024;48.708;9.394;2023-02-19T11:42:21;2.83;;;0.60;;
15848;SDS011;8024;48.708;9.394;2023-02-19T11:45:11;1.57;;;0.37;;
15848;SDS011;8024;48.708;9.394;2023-02-19T11:47:56;1.00;;;0.40;;
15848;SDS011;8024;48.708;9.394;2023-02-19T11:50:49;0.60;;;0.30;;
15848;SDS011;8024;48.708;9.394;2023-02-19T11:53:24;0.67;;;0.37;;
15848;SDS011;8024;48.708;9.394;2023-02-19T11:55:55;2.10;;;0.40;;
15848;SDS011;8024;48.708;9.394;2023-02-19T11:58:37;1.23;;;0.40;;
15848;SDS011;8024;48.708;9.394;2023-02-19T12:01:19;1.30;;;0.30;;
15848;SDS011;8024;48.708;9.394;2023-02-19T12:07:02;1.03;;;0.30;;
15848;SDS011;8024;48.708;9.394;2023-02-19T12:09:44;1.03;;;0.30;;
15848;SDS011;8024;48.708;9.394;2023-02-19T12:12:25;2.60;;;0.30;;
15848;SDS011;8024;48.708;9.394;2023-02-19T12:15:08;3.80;;;0.50;;
15848;SDS011;8024;48.708;9.394;2023-02-19T12:18:00;1.37;;;0.40;;
15848;SDS011;8024;48.708;9.394;2023-02-19T12:20:42;1.53;;;0.50;;
15848;SDS011;8024;48.708;9.394;2023-02-19T12:23:35;1.57;;;0.77;;
15848;SDS011;8024;48.708;9.394;2023-02-19T12:26:18;0.77;;;0.33;;
15848;SDS011;8024;48.708;9.394;2023-02-19T12:29:01;0.53;;;0.30;;
15848;SDS011;8024;48.708;9.394;2023-02-19T12:34:59;0.70;;;0.60;;
15848;SDS011;8024;48.708;9.394;2023-02-19T12:37:56;2.20;;;0.40;;
15848;SDS011;8024;48.708;9.394;2023-02-19T12:40:36;0.63;;;0.40;;
15848;SDS011;8024;48.708;9.394;2023-02-19T12:43:09;1.33;;;0.27;;
15848;SDS011;8024;48.708;9.394;2023-02-19T12:45:41;0.90;;;0.33;;
15848;SDS011;8024;48.708;9.394;2023-02-19T12:48:15;1.07;;;0.40;;
15848;SDS011;8024;48.708;9.394;2023-02-19T12:50:49;1.30;;;0.40;;
15848;SDS011;8024;48.708;9.394;2023-02-19T12:53:24;1.57;;;0.40;;
15848;SDS011;8024;48.708;9.394;2023-02-19T12:55:59;0.67;;;0.53;;
15848;SDS011;8024;48.708;9.394;2023-02-19T12:58:34;0.93;;;0.40;;
15848;SDS011;8024;48.708;9.394;2023-02-19T13:01:06;1.47;;;0.40;;
15848;SDS011;8024;48.708;9.394;2023-02-19T13:03:38;0.83;;;0.30;;
15848;SDS011;8024;48.708;9.394;2023-02-19T13:06:10;0.93;;;0.47;;
15848;SDS011;8024;48.708;9.394;2023-02-19T13:08:46;0.23;;;0.20;;
15848;SDS011;8024;48.708;9.394;2023-02-19T13:11:18;0.60;;;0.60;;
15848;SDS011;8024;48.708;9.394;2023-02-19T13:13:49;1.93;;;0.47;;
15848;SDS011;8024;48.708;9.394;2023-02-19T13:16:20;2.33;;;0.50;;
15848;SDS011;8024;48.708;9.394;2023-02-19T13:18:48;0.80;;;0.30;;
15848;SDS011;8024;48.708;9.394;2023-02-19T13:21:18;0.47;;;0.30;;
15848;SDS011;8024;48.708;9.394;2023-02-19T13:24:02;1.70;;;0.40;;
15848;SDS011;8024;48.708;9.394;2023-02-19T13:29:47;1.17;;;0.40;;
15848;SDS011;8024;48.708;9.394;2023-02-19T13:32:28;1.20;;;0.40;;
15848;SDS011;8024;48.708;9.394;2023-02-19T13:35:22;1.27;;;0.30;;
15848;SDS011;8024;48.708;9.394;2023-02-19T13:37:54;3.10;;;0.50;;
15848;SDS011;8024;48.708;9.394;2023-02-19T13:40:29;0.97;;;0.40;;
15848;SDS011;8024;48.708;9.394;2023-02-19T13:43:01;1.13;;;0.40;;
15848;SDS011;8024;48.708;9.394;2023-02-19T13:45:31;1.33;;;0.40;;
15848;SDS011;8024;48.708;9.394;2023-02-19T13:48:03;0.83;;;0.30;;
15848;SDS011;8024;48.708;9.394;2023-02-19T13:50:40;1.37;;;0.80;;
15848;SDS011;8024;48.708;9.394;2023-02-19T13:56:35;0.93;;;0.50;;
15848;SDS011;8024;48.708;9.394;2023-02-19T14:02:10;1.83;;;0.40;;
15848;SDS011;8024;48.708;9.394;2023-02-19T14:04:54;1.30;;;0.63;;
15848;SDS011;8024;48.708;9.394;2023-02-19T14:16:32;1.23;;;0.47;;
15848;SDS011;8024;48.708;9.394;2023-02-19T14:25:35;2.30;;;0.40;;
15848;SDS011;8024;48.708;9.394;2023-02-19T14:28:16;0.53;;;0.50;;
15848;SDS011;8024;48.708;9.394;2023-02-19T14:30:50;1.90;;;0.47;;
15848;SDS011;8024;48.708;9.394;2023-02-19T14:33:20;0.70;;;0.40;;
15848;SDS011;8024;48.708;9.394;2023-02-19T14:35:51;2.43;;;0.50;;
15848;SDS011;8024;48.708;9.394;2023-02-19T14:38:23;1.50;;;0.40;;
15848;SDS011;8024;48.708;9.394;2023-02-19T14:40:53;0.63;;;0.63;;
15848;SDS011;8024;48.708;9.394;2023-02-19T14:43:22;0.50;;;0.50;;
15848;SDS011;8024;48.708;9.394;2023-02-19T14:45:51;1.50;;;0.57;;
15848;SDS011;8024;48.708;9.394;2023-02-19T14:48:22;1.77;;;0.50;;
15848;SDS011;8024;48.708;9.394;2023-02-19T14:50:55;1.53;;;0.63;;
15848;SDS011;8024;48.708;9.394;2023-02-19T14:53:26;0.83;;;0.40;;
15848;SDS011;8024;48.708;9.394;2023-02-19T14:55:55;4.03;;;0.60;;
15848;SDS011;8024;48.708;9.394;2023-02-19T14:58:24;1.47;;;0.60;;
15848;SDS011;8024;48.708;9.394;2023-02-19T15:00:55;0.70;;;0.30;;
15848;SDS011;8024;48.708;9.394;2023-02-19T15:03:25;2.30;;;0.37;;
15848;SDS011;8024;48.708;9.394;2023-02-19T15:05:55;0.40;;;0.40;;
15848;SDS011;8024;48.708;9.394;2023-02-19T15:08:26;1.30;;;0.50;;
15848;SDS011;8024;48.708;9.394;2023-02-19T15:10:57;0.30;;;0.30;;
15848;SDS011;8024;48.708;9.394;2023-02-19T15:13:26;0.93;;;0.43;;
15848;SDS011;8024;48.708;9.394;2023-02-19T15:15:54;0.87;;;0.47;;
15848;SDS011;8024;48.708;9.394;2023-02-19T15:18:22;1.90;;;0.80;;
15848;SDS011;8024;48.708;9.394;2023-02-19T15:20:57;3.50;;;0.70;;
15848;SDS011;8024;48.708;9.394;2023-02-19T15:23:26;2.33;;;0.63;;
15848;SDS011;8024;48.708;9.394;2023-02-19T15:25:56;1.13;;;0.50;;
15848;SDS011;8024;48.708;9.394;2023-02-19T15:28:28;0.93;;;0.60;;
15848;SDS011;8024;48.708;9.394;2023-02-19T15:31:05;0.40;;;0.40;;
15848;SDS011;8024;48.708;9.394;2023-02-19T15:33:38;1.07;;;0.50;;
15848;SDS011;8024;48.708;9.394;2023-02-19T15:36:13;2.00;;;0.67;;
15848;SDS011;8024;48.708;9.394;2023-02-19T15:38:45;1.80;;;0.93;;
15848;SDS011;8024;48.708;9.394;2023-02-19T15:41:20;1.50;;;0.60;;
15848;SDS011;8024;48.708;9.394;2023-02-19T15:43:49;2.47;;;0.70;;
15848;SDS011;8024;48.708;9.394;2023-02-19T15:46:20;1.33;;;0.67;;
15848;SDS011;8024;48.708;9.394;2023-02-19T15:48:51;2.17;;;0.57;;
15848;SDS011;8024;48.708;9.394;2023-02-19T15:51:24;3.53;;;0.70;;
15848;SDS011;8024;48.708;9.394;2023-02-19T15:53:56;0.70;;;0.57;;
15848;SDS011;8024;48.708;9.394;2023-02-19T15:56:28;0.70;;;0.50;;
15848;SDS011;8024;48.708;9.394;2023-02-19T15:58:57;1.23;;;0.60;;
15848;SDS011;8024;48.708;9.394;2023-02-19T16:01:26;0.70;;;0.70;;
15848;SDS011;8024;48.708;9.394;2023-02-19T16:03:56;2.27;;;0.60;;